sensor_id;sensor_type;location;lat;lon;timestamp;pressure;altitude;pressure_sealevel;temperature;humidity
12722;BME280;6425;50.316;8.114;2023-07-20T00:00:00;989;;;16.1;67.3
12722;BME280;6425;50.316;8.114;2023-07-20T00:03:15;988;;;16.1;67.6
12722;BME280;6425;50.316;8.114;2023-07-20T00:06:00;988;;;16.1;67.8
12722;BME280;6425;50.316;8.114;2023-07-20T00:09:00;988;;;16.1;67.9
12722;BME280;6425;50.316;8.114;2023-07-20T00:12:00;988;;;16.3;67.5
12722;BME280;6425;50.316;8.114;2023-07-20T00:15:00;988;;;16.3;67.9
12722;BME280;6425;50.316;8.114;2023-07-20T00:18:00;988;;;16.4;67.5
12722;BME280;6425;50.316;8.114;2023-07-20T00:21:00;988;;;16.5;67
12722;BME280;6425;50.316;8.114;2023-07-20T00:24:00;988;;;16.6;66.3
12722;BME280;6425;50.316;8.114;2023-07-20T00:27:00;988;;;16.7;66.5
12722;BME280;6425;50.316;8.114;2023-07-20T00:30:00;988;;;16.6;66.7
12722;BME280;6425;50.316;8.114;2023-07-20T00:33:00;988;;;16.5;67.4
12722;BME280;6425;50.316;8.114;2023-07-20T00:36:00;988;;;16.4;67.9
12722;BME280;6425;50.316;8.114;2023-07-20T00:39:00;988;;;16.3;68.2
12722;BME280;6425;50.316;8.114;2023-07-20T00:42:00;988;;;16.1;69.1
12722;BME280;6425;50.316;8.114;2023-07-20T00:45:00;988;;;15.9;70.8
12722;BME280;6425;50.316;8.114;2023-07-20T00:48:00;988;;;15.7;71.5
12722;BME280;6425;50.316;8.114;2023-07-20T00:51:00;988;;;15.5;72.3
12722;BME280;6425;50.316;8.114;2023-07-20T00:54:00;988;;;15.4;73
12722;BME280;6425;50.316;8.114;2023-07-20T00:57:00;988;;;15.6;72.5
12722;BME280;6425;50.316;8.114;2023-07-20T01:00:00;988;;;15.5;72.4
12722;BME280;6425;50.316;8.114;2023-07-20T01:03:00;988;;;15.4;72.5
12722;BME280;6425;50.316;8.114;2023-07-20T01:06:02;988;;;15.4;72.6
12722;BME280;6425;50.316;8.114;2023-07-20T01:09:02;988;;;15.3;73.1
12722;BME280;6425;50.316;8.114;2023-07-20T01:12:01;988;;;15.5;72.6
12722;BME280;6425;50.316;8.114;2023-07-20T01:15:00;988;;;15.5;72.2
12722;BME280;6425;50.316;8.114;2023-07-20T01:18:00;988;;;15.5;72
12722;BME280;6425;50.316;8.114;2023-07-20T01:21:02;988;;;15.6;72.2
12722;BME280;6425;50.316;8.114;2023-07-20T01:24:05;988;;;15.6;72.2
12722;BME280;6425;50.316;8.114;2023-07-20T01:27:02;988;;;15.8;71.6
12722;BME280;6425;50.316;8.114;2023-07-20T01:33:00;988;;;15.4;73
12722;BME280;6425;50.316;8.114;2023-07-20T01:36:00;988;;;15.4;73.6
12722;BME280;6425;50.316;8.114;2023-07-20T01:39:00;988;;;15.3;73.9
12722;BME280;6425;50.316;8.114;2023-07-20T01:42:00;988;;;15.5;73.3
12722;BME280;6425;50.316;8.114;2023-07-20T01:45:00;988;;;15.8;72.1
12722;BME280;6425;50.316;8.114;2023-07-20T01:48:00;988;;;15.9;71.6
12722;BME280;6425;50.316;8.114;2023-07-20T01:51:00;988;;;16.1;70.9
12722;BME280;6425;50.316;8.114;2023-07-20T01:54:00;988;;;15.9;71.7
12722;BME280;6425;50.316;8.114;2023-07-20T01:57:00;988;;;15.9;72.2
12722;BME280;6425;50.316;8.114;2023-07-20T02:00:00;988;;;16;71.9
12722;BME280;6425;50.316;8.114;2023-07-20T02:03:00;989;;;16;71.9
12722;BME280;6425;50.316;8.114;2023-07-20T02:06:00;989;;;16.1;71.8
12722;BME280;6425;50.316;8.114;2023-07-20T02:09:00;989;;;15.9;72.6
12722;BME280;6425;50.316;8.114;2023-07-20T02:12:00;989;;;15.7;72.9
12722;BME280;6425;50.316;8.114;2023-07-20T02:15:00;989;;;16;73
12722;BME280;6425;50.316;8.114;2023-07-20T02:18:00;989;;;16.4;71.1
12722;BME280;6425;50.316;8.114;2023-07-20T02:21:00;989;;;16.1;72.7
12722;BME280;6425;50.316;8.114;2023-07-20T02:24:00;989;;;15.9;73.8
12722;BME280;6425;50.316;8.114;2023-07-20T02:27:00;988;;;15.7;74.8
12722;BME280;6425;50.316;8.114;2023-07-20T02:30:00;988;;;15.6;75.1
12722;BME280;6425;50.316;8.114;2023-07-20T02:33:00;988;;;15.8;74.7
12722;BME280;6425;50.316;8.114;2023-07-20T02:36:00;988;;;16.1;73.7
12722;BME280;6425;50.316;8.114;2023-07-20T02:39:00;988;;;16.1;73.4
12722;BME280;6425;50.316;8.114;2023-07-20T02:42:00;988;;;16.2;72.9
12722;BME280;6425;50.316;8.114;2023-07-20T02:45:01;988;;;16.6;71.1
12722;BME280;6425;50.316;8.114;2023-07-20T02:48:00;988;;;16.9;69.7
12722;BME280;6425;50.316;8.114;2023-07-20T02:51:00;988;;;17;69.3
12722;BME280;6425;50.316;8.114;2023-07-20T02:54:00;988;;;17;69.2
12722;BME280;6425;50.316;8.114;2023-07-20T02:57:00;989;;;16.8;69.7
12722;BME280;6425;50.316;8.114;2023-07-20T03:00:00;988;;;16.8;68.8
12722;BME280;6425;50.316;8.114;2023-07-20T03:03:00;988;;;16.4;69.9
12722;BME280;6425;50.316;8.114;2023-07-20T03:06:00;988;;;16.4;70.1
12722;BME280;6425;50.316;8.114;2023-07-20T03:09:00;988;;;16.1;70.6
12722;BME280;6425;50.316;8.114;2023-07-20T03:12:00;988;;;16;71.2
12722;BME280;6425;50.316;8.114;2023-07-20T03:15:00;988;;;15.9;71
12722;BME280;6425;50.316;8.114;2023-07-20T03:18:00;988;;;15.6;72.2
12722;BME280;6425;50.316;8.114;2023-07-20T03:21:00;988;;;15.4;72.9
12722;BME280;6425;50.316;8.114;2023-07-20T03:24:00;989;;;15.4;73.2
12722;BME280;6425;50.316;8.114;2023-07-20T03:27:00;988;;;15.3;73.8
12722;BME280;6425;50.316;8.114;2023-07-20T03:30:00;988;;;15.3;73.8
12722;BME280;6425;50.316;8.114;2023-07-20T03:33:00;989;;;15.3;73.6
12722;BME280;6425;50.316;8.114;2023-07-20T03:36:00;989;;;15.2;73.6
12722;BME280;6425;50.316;8.114;2023-07-20T03:39:00;988;;;15.3;73.3
12722;BME280;6425;50.316;8.114;2023-07-20T03:42:00;988;;;15.1;73.7
12722;BME280;6425;50.316;8.114;2023-07-20T03:45:00;989;;;15.3;73.5
12722;BME280;6425;50.316;8.114;2023-07-20T03:48:00;989;;;15.1;74.1
12722;BME280;6425;50.316;8.114;2023-07-20T03:51:00;989;;;14.9;74.8
12722;BME280;6425;50.316;8.114;2023-07-20T03:54:00;989;;;14.9;75.3
12722;BME280;6425;50.316;8.114;2023-07-20T03:57:00;989;;;15;75
12722;BME280;6425;50.316;8.114;2023-07-20T04:00:00;989;;;15;74.3
12722;BME280;6425;50.316;8.114;2023-07-20T04:03:00;989;;;15;74.7
12722;BME280;6425;50.316;8.114;2023-07-20T04:06:00;989;;;15.1;74.4
12722;BME280;6425;50.316;8.114;2023-07-20T04:09:00;989;;;14.9;75
12722;BME280;6425;50.316;8.114;2023-07-20T04:12:00;989;;;15;75.1
12722;BME280;6425;50.316;8.114;2023-07-20T04:15:00;989;;;15.2;74.4
12722;BME280;6425;50.316;8.114;2023-07-20T04:18:00;989;;;15.1;74.2
12722;BME280;6425;50.316;8.114;2023-07-20T04:21:00;989;;;15.1;74.4
12722;BME280;6425;50.316;8.114;2023-07-20T04:24:00;989;;;14.9;75.2
12722;BME280;6425;50.316;8.114;2023-07-20T04:27:00;989;;;14.8;76.1
12722;BME280;6425;50.316;8.114;2023-07-20T04:30:00;989;;;14.9;75.9
12722;BME280;6425;50.316;8.114;2023-07-20T04:33:00;989;;;14.9;75.7
12722;BME280;6425;50.316;8.114;2023-07-20T04:36:00;989;;;14.9;75.9
12722;BME280;6425;50.316;8.114;2023-07-20T04:39:00;989;;;15.1;75.9
12722;BME280;6425;50.316;8.114;2023-07-20T04:42:00;989;;;15.4;74.5
12722;BME280;6425;50.316;8.114;2023-07-20T04:45:00;989;;;14.9;74.5
12722;BME280;6425;50.316;8.114;2023-07-20T04:48:00;989;;;14.3;76.7
12722;BME280;6425;50.316;8.114;2023-07-20T04:51:00;989;;;14.5;76.8
12722;BME280;6425;50.316;8.114;2023-07-20T04:54:00;988;;;14.6;76.6
12722;BME280;6425;50.316;8.114;2023-07-20T04:57:00;989;;;14.4;78.4
12722;BME280;6425;50.316;8.114;2023-07-20T05:00:00;989;;;14.7;78.5
12722;BME280;6425;50.316;8.114;2023-07-20T05:03:00;989;;;15.1;77.5
12722;BME280;6425;50.316;8.114;2023-07-20T05:06:00;989;;;15.6;76.4
12722;BME280;6425;50.316;8.114;2023-07-20T05:09:00;989;;;16;74.9
12722;BME280;6425;50.316;8.114;2023-07-20T05:12:00;989;;;16.6;72.4
12722;BME280;6425;50.316;8.114;2023-07-20T05:15:00;989;;;16.7;71.1
12722;BME280;6425;50.316;8.114;2023-07-20T05:18:00;989;;;16.1;73.2
12722;BME280;6425;50.316;8.114;2023-07-20T05:21:00;989;;;16.2;74.2
12722;BME280;6425;50.316;8.114;2023-07-20T05:24:00;989;;;16;74
12722;BME280;6425;50.316;8.114;2023-07-20T05:27:00;989;;;16.1;74.2
12722;BME280;6425;50.316;8.114;2023-07-20T05:30:00;989;;;16.4;73.4
12722;BME280;6425;50.316;8.114;2023-07-20T05:33:00;989;;;16.4;71.9
12722;BME280;6425;50.316;8.114;2023-07-20T05:36:00;989;;;16.5;71.9
12722;BME280;6425;50.316;8.114;2023-07-20T05:39:00;989;;;16.9;71.1
12722;BME280;6425;50.316;8.114;2023-07-20T05:42:00;989;;;17.2;69.4
12722;BME280;6425;50.316;8.114;2023-07-20T05:45:00;989;;;17.5;68.3
12722;BME280;6425;50.316;8.114;2023-07-20T05:48:00;989;;;17.5;68.4
12722;BME280;6425;50.316;8.114;2023-07-20T05:51:00;989;;;17;70.5
12722;BME280;6425;50.316;8.114;2023-07-20T05:54:00;989;;;16.6;71.9
12722;BME280;6425;50.316;8.114;2023-07-20T05:57:00;989;;;16.4;72.6
12722;BME280;6425;50.316;8.114;2023-07-20T06:00:00;989;;;16.5;72.6
12722;BME280;6425;50.316;8.114;2023-07-20T06:03:00;989;;;16.6;73.2
12722;BME280;6425;50.316;8.114;2023-07-20T06:06:00;989;;;16.6;72.7
12722;BME280;6425;50.316;8.114;2023-07-20T06:09:00;989;;;16.7;73.2
12722;BME280;6425;50.316;8.114;2023-07-20T06:12:00;989;;;16.7;72.6
12722;BME280;6425;50.316;8.114;2023-07-20T06:15:02;989;;;16.6;73.2
12722;BME280;6425;50.316;8.114;2023-07-20T06:18:00;989;;;16.9;72.8
12722;BME280;6425;50.316;8.114;2023-07-20T06:21:05;989;;;16.9;71.3
12722;BME280;6425;50.316;8.114;2023-07-20T06:24:00;989;;;16.9;71.7
12722;BME280;6425;50.316;8.114;2023-07-20T06:27:00;989;;;16.8;72.2
12722;BME280;6425;50.316;8.114;2023-07-20T06:30:00;989;;;16.9;71.9
12722;BME280;6425;50.316;8.114;2023-07-20T06:33:00;989;;;16.7;72
12722;BME280;6425;50.316;8.114;2023-07-20T06:36:00;989;;;16.6;72
12722;BME280;6425;50.316;8.114;2023-07-20T06:39:00;989;;;16.6;71.9
12722;BME280;6425;50.316;8.114;2023-07-20T06:42:00;989;;;16.9;71.2
12722;BME280;6425;50.316;8.114;2023-07-20T06:45:00;989;;;16.9;71
12722;BME280;6425;50.316;8.114;2023-07-20T06:48:00;989;;;17.1;70.4
12722;BME280;6425;50.316;8.114;2023-07-20T06:51:00;989;;;17;70.5
12722;BME280;6425;50.316;8.114;2023-07-20T06:54:00;989;;;16.9;70.9
12722;BME280;6425;50.316;8.114;2023-07-20T06:57:00;989;;;16.8;71.4
12722;BME280;6425;50.316;8.114;2023-07-20T07:00:00;989;;;17;70.6
12722;BME280;6425;50.316;8.114;2023-07-20T07:03:00;989;;;17;70.8
12722;BME280;6425;50.316;8.114;2023-07-20T07:06:00;989;;;17.2;70.6
12722;BME280;6425;50.316;8.114;2023-07-20T07:09:00;989;;;17.2;70.6
12722;BME280;6425;50.316;8.114;2023-07-20T07:12:00;989;;;16.9;71.2
12722;BME280;6425;50.316;8.114;2023-07-20T07:15:00;989;;;16.8;72
12722;BME280;6425;50.316;8.114;2023-07-20T07:18:00;989;;;16.7;72.1
12722;BME280;6425;50.316;8.114;2023-07-20T07:21:00;989;;;16.7;72.3
12722;BME280;6425;50.316;8.114;2023-07-20T07:24:00;989;;;17;71.4
12722;BME280;6425;50.316;8.114;2023-07-20T07:27:00;989;;;17.4;69.9
12722;BME280;6425;50.316;8.114;2023-07-20T07:30:00;989;;;17.6;68.4
12722;BME280;6425;50.316;8.114;2023-07-20T07:33:00;989;;;17.5;68.7
12722;BME280;6425;50.316;8.114;2023-07-20T07:36:00;989;;;17.6;68.9
12722;BME280;6425;50.316;8.114;2023-07-20T07:39:00;989;;;17.7;68
12722;BME280;6425;50.316;8.114;2023-07-20T07:42:00;989;;;17.6;68.2
12722;BME280;6425;50.316;8.114;2023-07-20T07:45:00;989;;;17.5;68.1
12722;BME280;6425;50.316;8.114;2023-07-20T07:48:00;989;;;17.6;67.6
12722;BME280;6425;50.316;8.114;2023-07-20T07:51:00;989;;;17.5;68.4
12722;BME280;6425;50.316;8.114;2023-07-20T07:54:00;989;;;17.6;67.9
12722;BME280;6425;50.316;8.114;2023-07-20T07:57:00;989;;;17.5;68.6
12722;BME280;6425;50.316;8.114;2023-07-20T08:00:00;989;;;17.4;69.3
12722;BME280;6425;50.316;8.114;2023-07-20T08:03:00;989;;;17.4;69
12722;BME280;6425;50.316;8.114;2023-07-20T08:06:00;989;;;17.8;68
12722;BME280;6425;50.316;8.114;2023-07-20T08:09:00;989;;;17.5;69.3
12722;BME280;6425;50.316;8.114;2023-07-20T08:12:00;989;;;17.2;69.6
12722;BME280;6425;50.316;8.114;2023-07-20T08:15:00;989;;;17.5;69.3
12722;BME280;6425;50.316;8.114;2023-07-20T08:18:00;989;;;17.9;67.3
12722;BME280;6425;50.316;8.114;2023-07-20T08:21:00;989;;;18;66.4
12722;BME280;6425;50.316;8.114;2023-07-20T08:24:00;989;;;18.4;64.4
12722;BME280;6425;50.316;8.114;2023-07-20T08:27:00;989;;;18.1;62.5
12722;BME280;6425;50.316;8.114;2023-07-20T08:30:00;989;;;18;62.7
12722;BME280;6425;50.316;8.114;2023-07-20T08:33:00;989;;;17.8;63.2
12722;BME280;6425;50.316;8.114;2023-07-20T08:36:00;989;;;17.9;63.6
12722;BME280;6425;50.316;8.114;2023-07-20T08:39:00;989;;;18.5;61.4
12722;BME280;6425;50.316;8.114;2023-07-20T08:42:00;989;;;19.2;59.6
12722;BME280;6425;50.316;8.114;2023-07-20T08:45:00;989;;;19.8;57.8
12722;BME280;6425;50.316;8.114;2023-07-20T08:48:00;989;;;19.7;58.4
12722;BME280;6425;50.316;8.114;2023-07-20T08:51:00;990;;;19.5;58.9
12722;BME280;6425;50.316;8.114;2023-07-20T08:54:00;990;;;19.4;59.9
12722;BME280;6425;50.316;8.114;2023-07-20T08:57:01;989;;;19.2;60.7
12722;BME280;6425;50.316;8.114;2023-07-20T09:00:00;989;;;19.1;61.2
12722;BME280;6425;50.316;8.114;2023-07-20T09:03:00;989;;;18.7;62
12722;BME280;6425;50.316;8.114;2023-07-20T09:06:00;989;;;19.1;61.4
12722;BME280;6425;50.316;8.114;2023-07-20T09:09:00;989;;;19.1;61.1
12722;BME280;6425;50.316;8.114;2023-07-20T09:12:00;989;;;18.9;61.4
12722;BME280;6425;50.316;8.114;2023-07-20T09:15:00;989;;;19.9;58.3
12722;BME280;6425;50.316;8.114;2023-07-20T09:18:01;989;;;20;55.2
12722;BME280;6425;50.316;8.114;2023-07-20T09:21:01;989;;;20.1;55.1
12722;BME280;6425;50.316;8.114;2023-07-20T09:24:00;989;;;19.4;58.3
12722;BME280;6425;50.316;8.114;2023-07-20T09:27:00;989;;;18.9;59.5
12722;BME280;6425;50.316;8.114;2023-07-20T09:30:00;990;;;19;56.9
12722;BME280;6425;50.316;8.114;2023-07-20T09:33:00;989;;;19.4;55.1
12722;BME280;6425;50.316;8.114;2023-07-20T09:36:01;989;;;19.8;54.4
12722;BME280;6425;50.316;8.114;2023-07-20T09:39:00;989;;;20;53.3
12722;BME280;6425;50.316;8.114;2023-07-20T09:42:00;989;;;20;53.4
12722;BME280;6425;50.316;8.114;2023-07-20T09:45:00;989;;;20.2;52.4
12722;BME280;6425;50.316;8.114;2023-07-20T09:48:03;989;;;19.9;52.6
12722;BME280;6425;50.316;8.114;2023-07-20T09:51:00;989;;;19.8;52.9
12722;BME280;6425;50.316;8.114;2023-07-20T09:54:00;989;;;20.5;51.2
12722;BME280;6425;50.316;8.114;2023-07-20T09:57:00;989;;;20.5;51.3
12722;BME280;6425;50.316;8.114;2023-07-20T10:00:00;989;;;19.9;51.6
12722;BME280;6425;50.316;8.114;2023-07-20T10:03:00;989;;;20;52.2
12722;BME280;6425;50.316;8.114;2023-07-20T10:06:00;989;;;20.7;51.6
12722;BME280;6425;50.316;8.114;2023-07-20T10:09:00;989;;;19.9;53
12722;BME280;6425;50.316;8.114;2023-07-20T10:12:00;989;;;20;52.8
12722;BME280;6425;50.316;8.114;2023-07-20T10:15:03;989;;;20.2;52.1
12722;BME280;6425;50.316;8.114;2023-07-20T10:18:02;989;;;20.6;49.4
12722;BME280;6425;50.316;8.114;2023-07-20T10:21:00;989;;;20.4;48.7
12722;BME280;6425;50.316;8.114;2023-07-20T10:24:00;989;;;20.6;48.2
12722;BME280;6425;50.316;8.114;2023-07-20T10:27:00;989;;;20.8;49
12722;BME280;6425;50.316;8.114;2023-07-20T10:30:00;989;;;20.5;49.5
12722;BME280;6425;50.316;8.114;2023-07-20T10:33:00;989;;;20.7;49.7
12722;BME280;6425;50.316;8.114;2023-07-20T10:36:01;989;;;20.9;48.7
12722;BME280;6425;50.316;8.114;2023-07-20T10:39:00;989;;;21.5;47
12722;BME280;6425;50.316;8.114;2023-07-20T10:42:00;989;;;21.5;47.1
12722;BME280;6425;50.316;8.114;2023-07-20T10:45:00;989;;;21.4;48
12722;BME280;6425;50.316;8.114;2023-07-20T10:48:02;989;;;21.4;47.4
12722;BME280;6425;50.316;8.114;2023-07-20T10:51:19;989;;;21.2;46.4
12722;BME280;6425;50.316;8.114;2023-07-20T10:54:00;989;;;20.8;47.7
12722;BME280;6425;50.316;8.114;2023-07-20T11:00:08;989;;;20.9;46.4
12722;BME280;6425;50.316;8.114;2023-07-20T11:03:00;989;;;20.7;46.9
12722;BME280;6425;50.316;8.114;2023-07-20T11:06:29;989;;;21.1;46.7
12722;BME280;6425;50.316;8.114;2023-07-20T11:09:09;989;;;21.3;46.2
12722;BME280;6425;50.316;8.114;2023-07-20T11:12:08;989;;;21.4;45.3
12722;BME280;6425;50.316;8.114;2023-07-20T11:15:00;989;;;21.7;44.2
12722;BME280;6425;50.316;8.114;2023-07-20T11:18:10;989;;;21.7;43.9
12722;BME280;6425;50.316;8.114;2023-07-20T11:21:00;989;;;22;45
12722;BME280;6425;50.316;8.114;2023-07-20T11:24:00;989;;;22.3;43.4
12722;BME280;6425;50.316;8.114;2023-07-20T11:27:00;989;;;22;44.1
12722;BME280;6425;50.316;8.114;2023-07-20T11:30:00;989;;;22.4;43.5
12722;BME280;6425;50.316;8.114;2023-07-20T11:33:00;989;;;22.4;41.5
12722;BME280;6425;50.316;8.114;2023-07-20T11:36:00;989;;;21.9;42.5
12722;BME280;6425;50.316;8.114;2023-07-20T11:39:00;989;;;22.7;41
12722;BME280;6425;50.316;8.114;2023-07-20T11:42:00;989;;;22.5;42.3
12722;BME280;6425;50.316;8.114;2023-07-20T11:45:01;989;;;22.7;41.8
12722;BME280;6425;50.316;8.114;2023-07-20T11:48:00;989;;;22.4;41.2
12722;BME280;6425;50.316;8.114;2023-07-20T11:51:00;989;;;23.1;40.4
12722;BME280;6425;50.316;8.114;2023-07-20T11:54:01;988;;;22.3;41.9
12722;BME280;6425;50.316;8.114;2023-07-20T11:57:00;988;;;23.4;40
12722;BME280;6425;50.316;8.114;2023-07-20T12:00:00;988;;;23.2;39.9
12722;BME280;6425;50.316;8.114;2023-07-20T12:03:00;988;;;23.1;40.3
12722;BME280;6425;50.316;8.114;2023-07-20T12:06:05;988;;;22.7;41
12722;BME280;6425;50.316;8.114;2023-07-20T12:09:00;988;;;22.9;40.9
12722;BME280;6425;50.316;8.114;2023-07-20T12:12:00;988;;;23.3;40.3
12722;BME280;6425;50.316;8.114;2023-07-20T12:15:15;988;;;23.2;39.9
12722;BME280;6425;50.316;8.114;2023-07-20T12:18:00;988;;;22.7;40.3
12722;BME280;6425;50.316;8.114;2023-07-20T12:21:00;988;;;23;40.7
12722;BME280;6425;50.316;8.114;2023-07-20T12:24:00;988;;;23.4;38.9
12722;BME280;6425;50.316;8.114;2023-07-20T12:27:00;988;;;22.4;39.7
12722;BME280;6425;50.316;8.114;2023-07-20T12:30:00;988;;;22.3;40.5
12722;BME280;6425;50.316;8.114;2023-07-20T12:33:00;988;;;21.9;42.2
12722;BME280;6425;50.316;8.114;2023-07-20T12:36:00;988;;;22;41.8
12722;BME280;6425;50.316;8.114;2023-07-20T12:39:00;988;;;22;42.2
12722;BME280;6425;50.316;8.114;2023-07-20T12:42:00;988;;;22;41.9
12722;BME280;6425;50.316;8.114;2023-07-20T12:45:00;988;;;22.2;41.6
12722;BME280;6425;50.316;8.114;2023-07-20T12:48:00;988;;;22.2;42.1
12722;BME280;6425;50.316;8.114;2023-07-20T12:51:00;988;;;22.8;40.8
12722;BME280;6425;50.316;8.114;2023-07-20T12:54:00;988;;;23;39.8
12722;BME280;6425;50.316;8.114;2023-07-20T12:57:00;988;;;23.2;39.7
12722;BME280;6425;50.316;8.114;2023-07-20T13:00:00;988;;;23.6;38.8
12722;BME280;6425;50.316;8.114;2023-07-20T13:03:00;988;;;23.4;39.5
12722;BME280;6425;50.316;8.114;2023-07-20T13:06:00;988;;;23.4;39.5
12722;BME280;6425;50.316;8.114;2023-07-20T13:09:00;988;;;22.8;40.8
12722;BME280;6425;50.316;8.114;2023-07-20T13:12:00;988;;;22.3;42.4
12722;BME280;6425;50.316;8.114;2023-07-20T13:15:01;988;;;22.3;42.5
12722;BME280;6425;50.316;8.114;2023-07-20T13:18:00;988;;;22.1;43.3
12722;BME280;6425;50.316;8.114;2023-07-20T13:21:00;988;;;22.2;42.4
12722;BME280;6425;50.316;8.114;2023-07-20T13:24:00;988;;;22.3;43.1
12722;BME280;6425;50.316;8.114;2023-07-20T13:27:00;988;;;22.3;42
12722;BME280;6425;50.316;8.114;2023-07-20T13:30:00;988;;;21.9;42.7
12722;BME280;6425;50.316;8.114;2023-07-20T13:33:00;988;;;22;43.3
12722;BME280;6425;50.316;8.114;2023-07-20T13:36:00;988;;;22.2;43.1
12722;BME280;6425;50.316;8.114;2023-07-20T13:39:00;988;;;22.4;41.9
12722;BME280;6425;50.316;8.114;2023-07-20T13:42:00;988;;;22.2;42.5
12722;BME280;6425;50.316;8.114;2023-07-20T13:45:00;988;;;22.7;41.3
12722;BME280;6425;50.316;8.114;2023-07-20T13:48:00;988;;;23.4;40.3
12722;BME280;6425;50.316;8.114;2023-07-20T13:51:00;988;;;23.3;39.6
12722;BME280;6425;50.316;8.114;2023-07-20T13:54:00;988;;;22.7;41
12722;BME280;6425;50.316;8.114;2023-07-20T13:57:00;988;;;22.3;42.2
12722;BME280;6425;50.316;8.114;2023-07-20T14:00:00;988;;;22.1;43.2
12722;BME280;6425;50.316;8.114;2023-07-20T14:03:00;988;;;22.1;42
12722;BME280;6425;50.316;8.114;2023-07-20T14:06:00;988;;;22.2;41.4
12722;BME280;6425;50.316;8.114;2023-07-20T14:09:00;988;;;22.4;41.1
12722;BME280;6425;50.316;8.114;2023-07-20T14:12:00;988;;;22.7;40.5
12722;BME280;6425;50.316;8.114;2023-07-20T14:15:00;988;;;22.6;40.1
12722;BME280;6425;50.316;8.114;2023-07-20T14:18:00;988;;;22.4;41.4
12722;BME280;6425;50.316;8.114;2023-07-20T14:21:00;988;;;23.2;39.2
12722;BME280;6425;50.316;8.114;2023-07-20T14:24:00;988;;;23.1;39.2
12722;BME280;6425;50.316;8.114;2023-07-20T14:27:00;988;;;23.2;38.4
12722;BME280;6425;50.316;8.114;2023-07-20T14:30:00;988;;;22.9;39.8
12722;BME280;6425;50.316;8.114;2023-07-20T14:33:00;988;;;22.6;40.3
12722;BME280;6425;50.316;8.114;2023-07-20T14:36:00;988;;;22.6;40
12722;BME280;6425;50.316;8.114;2023-07-20T14:39:00;988;;;23;39.7
12722;BME280;6425;50.316;8.114;2023-07-20T14:42:00;988;;;23.4;39.2
12722;BME280;6425;50.316;8.114;2023-07-20T14:45:00;988;;;23.6;38.9
12722;BME280;6425;50.316;8.114;2023-07-20T14:48:00;988;;;23.4;39.2
12722;BME280;6425;50.316;8.114;2023-07-20T14:51:00;988;;;23.1;39.6
12722;BME280;6425;50.316;8.114;2023-07-20T14:54:00;988;;;23.1;39.6
12722;BME280;6425;50.316;8.114;2023-07-20T14:57:00;987;;;23.6;39.4
12722;BME280;6425;50.316;8.114;2023-07-20T15:00:00;987;;;23.6;37.8
12722;BME280;6425;50.316;8.114;2023-07-20T15:03:00;987;;;23.4;38.7
12722;BME280;6425;50.316;8.114;2023-07-20T15:06:00;987;;;23;39.8
12722;BME280;6425;50.316;8.114;2023-07-20T15:09:00;987;;;23.4;38.9
12722;BME280;6425;50.316;8.114;2023-07-20T15:12:00;987;;;23.3;38.4
12722;BME280;6425;50.316;8.114;2023-07-20T15:15:03;987;;;23.7;37.9
12722;BME280;6425;50.316;8.114;2023-07-20T15:18:00;987;;;23.8;38.5
12722;BME280;6425;50.316;8.114;2023-07-20T15:21:00;987;;;23.7;38.5
12722;BME280;6425;50.316;8.114;2023-07-20T15:24:00;987;;;23.4;39
12722;BME280;6425;50.316;8.114;2023-07-20T15:27:00;987;;;23.6;38.7
12722;BME280;6425;50.316;8.114;2023-07-20T15:30:00;987;;;23.4;39.2
12722;BME280;6425;50.316;8.114;2023-07-20T15:33:00;987;;;23.9;38.4
12722;BME280;6425;50.316;8.114;2023-07-20T15:36:00;987;;;23.6;40.1
12722;BME280;6425;50.316;8.114;2023-07-20T15:39:00;987;;;23;41.7
12722;BME280;6425;50.316;8.114;2023-07-20T15:42:00;987;;;23.1;41.4
12722;BME280;6425;50.316;8.114;2023-07-20T15:45:00;987;;;23.2;41.5
12722;BME280;6425;50.316;8.114;2023-07-20T15:48:00;987;;;23.1;41
12722;BME280;6425;50.316;8.114;2023-07-20T15:51:00;987;;;23.5;40.6
12722;BME280;6425;50.316;8.114;2023-07-20T15:54:00;987;;;23.4;40.5
12722;BME280;6425;50.316;8.114;2023-07-20T15:57:00;987;;;23.4;40.5
12722;BME280;6425;50.316;8.114;2023-07-20T16:00:00;987;;;23;41.3
12722;BME280;6425;50.316;8.114;2023-07-20T16:03:00;987;;;23.2;40.6
12722;BME280;6425;50.316;8.114;2023-07-20T16:06:00;987;;;23.7;40.1
12722;BME280;6425;50.316;8.114;2023-07-20T16:09:00;987;;;24.3;38.7
12722;BME280;6425;50.316;8.114;2023-07-20T16:12:00;987;;;24.6;38.2
12722;BME280;6425;50.316;8.114;2023-07-20T16:15:00;987;;;24.8;37.8
12722;BME280;6425;50.316;8.114;2023-07-20T16:18:00;987;;;24.4;39
12722;BME280;6425;50.316;8.114;2023-07-20T16:21:00;987;;;23.8;40
12722;BME280;6425;50.316;8.114;2023-07-20T16:24:00;987;;;23.5;40.8
12722;BME280;6425;50.316;8.114;2023-07-20T16:27:00;987;;;23.3;41
12722;BME280;6425;50.316;8.114;2023-07-20T16:30:00;987;;;23;41.6
12722;BME280;6425;50.316;8.114;2023-07-20T16:33:00;987;;;23;41.5
12722;BME280;6425;50.316;8.114;2023-07-20T16:36:00;987;;;22.9;41.9
12722;BME280;6425;50.316;8.114;2023-07-20T16:39:00;987;;;23;41.4
12722;BME280;6425;50.316;8.114;2023-07-20T16:42:00;987;;;23.1;41.5
12722;BME280;6425;50.316;8.114;2023-07-20T16:45:00;987;;;23.4;41
12722;BME280;6425;50.316;8.114;2023-07-20T16:48:00;987;;;23.1;41.1
12722;BME280;6425;50.316;8.114;2023-07-20T16:51:00;987;;;23.1;40.8
12722;BME280;6425;50.316;8.114;2023-07-20T16:54:00;987;;;23;41.4
12722;BME280;6425;50.316;8.114;2023-07-20T16:57:00;987;;;23.5;40.6
12722;BME280;6425;50.316;8.114;2023-07-20T17:00:00;987;;;23.3;41
12722;BME280;6425;50.316;8.114;2023-07-20T17:03:00;987;;;22.9;41.7
12722;BME280;6425;50.316;8.114;2023-07-20T17:06:02;987;;;22.8;41.4
12722;BME280;6425;50.316;8.114;2023-07-20T17:09:00;987;;;23;41.7
12722;BME280;6425;50.316;8.114;2023-07-20T17:12:00;987;;;22.9;41.5
12722;BME280;6425;50.316;8.114;2023-07-20T17:15:00;987;;;23;41.8
12722;BME280;6425;50.316;8.114;2023-07-20T17:18:00;987;;;23.1;41.3
12722;BME280;6425;50.316;8.114;2023-07-20T17:21:00;987;;;23.1;41.1
12722;BME280;6425;50.316;8.114;2023-07-20T17:24:00;987;;;23;41.5
12722;BME280;6425;50.316;8.114;2023-07-20T17:27:00;987;;;22.7;42.1
12722;BME280;6425;50.316;8.114;2023-07-20T17:30:00;987;;;22.5;42.7
12722;BME280;6425;50.316;8.114;2023-07-20T17:33:00;987;;;22.6;43
12722;BME280;6425;50.316;8.114;2023-07-20T17:36:00;987;;;22.6;42.7
12722;BME280;6425;50.316;8.114;2023-07-20T17:39:00;987;;;22.5;43
12722;BME280;6425;50.316;8.114;2023-07-20T17:42:00;987;;;22.4;43.2
12722;BME280;6425;50.316;8.114;2023-07-20T17:45:00;987;;;22.4;43
12722;BME280;6425;50.316;8.114;2023-07-20T17:48:00;987;;;22.1;43.2
12722;BME280;6425;50.316;8.114;2023-07-20T17:51:00;987;;;22.1;42.8
12722;BME280;6425;50.316;8.114;2023-07-20T17:54:00;987;;;22.3;42.4
12722;BME280;6425;50.316;8.114;2023-07-20T17:57:00;987;;;22.4;42.5
12722;BME280;6425;50.316;8.114;2023-07-20T18:00:00;987;;;22.7;41.9